sensor_id;sensor_type;location;lat;lon;timestamp;temperature;humidity
40638;DHT22;26336;44.696;10.622;2023-08-12T00:03:03;24.70;94.50
40638;DHT22;26336;44.696;10.622;2023-08-12T00:06:08;24.70;94.70
40638;DHT22;26336;44.696;10.622;2023-08-12T00:09:15;24.60;95.10
40638;DHT22;26336;44.696;10.622;2023-08-12T00:12:19;24.50;95.20
40638;DHT22;26336;44.696;10.622;2023-08-12T00:15:23;24.50;95.20
40638;DHT22;26336;44.696;10.622;2023-08-12T00:18:27;24.60;95.30
40638;DHT22;26336;44.696;10.622;2023-08-12T00:21:31;24.60;95.40
40638;DHT22;26336;44.696;10.622;2023-08-12T00:24:35;24.60;95.50
40638;DHT22;26336;44.696;10.622;2023-08-12T00:27:39;24.60;95.60
40638;DHT22;26336;44.696;10.622;2023-08-12T00:30:43;24.50;95.80
40638;DHT22;26336;44.696;10.622;2023-08-12T00:33:47;24.50;95.90
40638;DHT22;26336;44.696;10.622;2023-08-12T00:36:51;24.50;95.90
40638;DHT22;26336;44.696;10.622;2023-08-12T00:39:55;24.50;95.90
40638;DHT22;26336;44.696;10.622;2023-08-12T00:43:00;24.50;95.70
40638;DHT22;26336;44.696;10.622;2023-08-12T00:46:04;24.40;96.10
40638;DHT22;26336;44.696;10.622;2023-08-12T00:49:10;24.40;96.20
40638;DHT22;26336;44.696;10.622;2023-08-12T00:52:15;24.40;96.30
40638;DHT22;26336;44.696;10.622;2023-08-12T00:55:20;24.40;96.50
40638;DHT22;26336;44.696;10.622;2023-08-12T00:58:24;24.40;96.70
40638;DHT22;26336;44.696;10.622;2023-08-12T01:01:29;24.50;97.10
40638;DHT22;26336;44.696;10.622;2023-08-12T01:04:34;24.30;97.60
40638;DHT22;26336;44.696;10.622;2023-08-12T01:07:38;24.20;97.70
40638;DHT22;26336;44.696;10.622;2023-08-12T01:10:51;24.00;97.90
40638;DHT22;26336;44.696;10.622;2023-08-12T01:14:00;24.00;98.20
40638;DHT22;26336;44.696;10.622;2023-08-12T01:17:11;24.00;98.20
40638;DHT22;26336;44.696;10.622;2023-08-12T01:20:15;24.10;98.30
40638;DHT22;26336;44.696;10.622;2023-08-12T01:23:19;24.10;98.30
40638;DHT22;26336;44.696;10.622;2023-08-12T01:26:24;24.10;98.30
40638;DHT22;26336;44.696;10.622;2023-08-12T01:29:28;24.10;98.30
40638;DHT22;26336;44.696;10.622;2023-08-12T01:32:53;24.20;98.20
40638;DHT22;26336;44.696;10.622;2023-08-12T01:36:12;24.20;98.20
40638;DHT22;26336;44.696;10.622;2023-08-12T01:39:20;24.20;98.30
40638;DHT22;26336;44.696;10.622;2023-08-12T01:42:25;24.20;98.40
40638;DHT22;26336;44.696;10.622;2023-08-12T01:45:31;24.20;98.50
40638;DHT22;26336;44.696;10.622;2023-08-12T01:48:39;24.10;98.50
40638;DHT22;26336;44.696;10.622;2023-08-12T01:51:43;24.10;98.70
40638;DHT22;26336;44.696;10.622;2023-08-12T01:54:47;24.10;98.70
40638;DHT22;26336;44.696;10.622;2023-08-12T01:57:51;24.10;98.80
40638;DHT22;26336;44.696;10.622;2023-08-12T02:00:55;24.10;98.90
40638;DHT22;26336;44.696;10.622;2023-08-12T02:03:59;24.10;98.90
40638;DHT22;26336;44.696;10.622;2023-08-12T02:07:04;24.00;98.90
40638;DHT22;26336;44.696;10.622;2023-08-12T02:10:08;24.00;99.00
40638;DHT22;26336;44.696;10.622;2023-08-12T02:13:12;23.90;99.10
40638;DHT22;26336;44.696;10.622;2023-08-12T02:16:16;23.90;99.10
40638;DHT22;26336;44.696;10.622;2023-08-12T02:19:20;23.90;99.20
40638;DHT22;26336;44.696;10.622;2023-08-12T02:22:24;23.80;99.30
40638;DHT22;26336;44.696;10.622;2023-08-12T02:25:28;23.80;99.50
40638;DHT22;26336;44.696;10.622;2023-08-12T02:28:32;23.70;99.50
40638;DHT22;26336;44.696;10.622;2023-08-12T02:31:36;23.70;99.60
40638;DHT22;26336;44.696;10.622;2023-08-12T02:34:40;23.70;99.60
40638;DHT22;26336;44.696;10.622;2023-08-12T02:37:50;23.70;99.80
40638;DHT22;26336;44.696;10.622;2023-08-12T02:40:54;23.70;99.80
40638;DHT22;26336;44.696;10.622;2023-08-12T02:43:59;23.70;99.80
40638;DHT22;26336;44.696;10.622;2023-08-12T02:47:03;23.70;99.90
40638;DHT22;26336;44.696;10.622;2023-08-12T02:50:07;23.70;99.90
40638;DHT22;26336;44.696;10.622;2023-08-12T02:53:11;23.60;99.80
40638;DHT22;26336;44.696;10.622;2023-08-12T02:56:15;23.60;99.90
40638;DHT22;26336;44.696;10.622;2023-08-12T02:59:19;23.60;99.90
40638;DHT22;26336;44.696;10.622;2023-08-12T03:02:23;23.60;99.90
40638;DHT22;26336;44.696;10.622;2023-08-12T03:05:26;23.60;99.90
40638;DHT22;26336;44.696;10.622;2023-08-12T03:08:30;23.60;99.90
40638;DHT22;26336;44.696;10.622;2023-08-12T03:11:34;23.50;99.90
40638;DHT22;26336;44.696;10.622;2023-08-12T03:14:41;23.50;99.90
40638;DHT22;26336;44.696;10.622;2023-08-12T03:17:46;23.50;99.90
40638;DHT22;26336;44.696;10.622;2023-08-12T03:20:50;23.50;99.90
40638;DHT22;26336;44.696;10.622;2023-08-12T03:23:55;23.40;99.90
40638;DHT22;26336;44.696;10.622;2023-08-12T03:27:00;23.40;99.90
40638;DHT22;26336;44.696;10.622;2023-08-12T03:30:05;23.40;99.90
40638;DHT22;26336;44.696;10.622;2023-08-12T03:33:09;23.40;99.90
40638;DHT22;26336;44.696;10.622;2023-08-12T03:36:15;23.40;99.90
40638;DHT22;26336;44.696;10.622;2023-08-12T03:39:19;23.30;99.90
40638;DHT22;26336;44.696;10.622;2023-08-12T03:42:23;23.30;99.90
40638;DHT22;26336;44.696;10.622;2023-08-12T03:45:27;23.30;99.90
40638;DHT22;26336;44.696;10.622;2023-08-12T03:48:31;23.30;99.90
40638;DHT22;26336;44.696;10.622;2023-08-12T03:51:37;23.20;99.90
40638;DHT22;26336;44.696;10.622;2023-08-12T03:54:41;23.20;99.90
40638;DHT22;26336;44.696;10.622;2023-08-12T03:57:45;23.20;99.90
40638;DHT22;26336;44.696;10.622;2023-08-12T04:00:49;23.20;99.90
40638;DHT22;26336;44.696;10.622;2023-08-12T04:03:54;23.20;99.90
40638;DHT22;26336;44.696;10.622;2023-08-12T04:06:58;23.10;99.90
40638;DHT22;26336;44.696;10.622;2023-08-12T04:10:03;23.10;99.90
40638;DHT22;26336;44.696;10.622;2023-08-12T04:13:07;23.10;99.90
40638;DHT22;26336;44.696;10.622;2023-08-12T04:16:11;23.00;99.90
40638;DHT22;26336;44.696;10.622;2023-08-12T04:19:15;23.00;99.90
40638;DHT22;26336;44.696;10.622;2023-08-12T04:22:19;23.00;99.90
40638;DHT22;26336;44.696;10.622;2023-08-12T04:25:23;23.00;99.90
40638;DHT22;26336;44.696;10.622;2023-08-12T04:28:26;23.00;99.90
40638;DHT22;26336;44.696;10.622;2023-08-12T04:31:30;22.90;99.90
40638;DHT22;26336;44.696;10.622;2023-08-12T04:34:34;22.90;99.90
40638;DHT22;26336;44.696;10.622;2023-08-12T04:37:38;22.90;99.90
40638;DHT22;26336;44.696;10.622;2023-08-12T04:40:43;22.90;99.90
40638;DHT22;26336;44.696;10.622;2023-08-12T04:43:47;22.90;99.90
40638;DHT22;26336;44.696;10.622;2023-08-12T04:46:51;22.90;99.90
40638;DHT22;26336;44.696;10.622;2023-08-12T04:49:57;22.90;99.90
40638;DHT22;26336;44.696;10.622;2023-08-12T04:53:02;22.90;99.90
40638;DHT22;26336;44.696;10.622;2023-08-12T04:56:05;22.80;99.90
40638;DHT22;26336;44.696;10.622;2023-08-12T04:59:10;22.90;99.90
40638;DHT22;26336;44.696;10.622;2023-08-12T05:02:14;22.80;99.90
40638;DHT22;26336;44.696;10.622;2023-08-12T05:05:19;22.80;99.90
40638;DHT22;26336;44.696;10.622;2023-08-12T05:08:24;22.80;99.90
40638;DHT22;26336;44.696;10.622;2023-08-12T05:11:28;22.80;99.90
40638;DHT22;26336;44.696;10.622;2023-08-12T05:14:32;22.70;99.90
40638;DHT22;26336;44.696;10.622;2023-08-12T05:17:37;22.70;99.90
40638;DHT22;26336;44.696;10.622;2023-08-12T05:20:41;22.70;99.90
40638;DHT22;26336;44.696;10.622;2023-08-12T05:23:46;22.60;99.90
40638;DHT22;26336;44.696;10.622;2023-08-12T05:26:50;22.60;99.90
40638;DHT22;26336;44.696;10.622;2023-08-12T05:29:54;22.50;99.90
40638;DHT22;26336;44.696;10.622;2023-08-12T05:32:58;22.40;99.90
40638;DHT22;26336;44.696;10.622;2023-08-12T05:36:03;22.40;99.90
40638;DHT22;26336;44.696;10.622;2023-08-12T05:39:07;22.50;99.90
40638;DHT22;26336;44.696;10.622;2023-08-12T05:42:10;22.50;99.90
40638;DHT22;26336;44.696;10.622;2023-08-12T05:45:14;22.50;99.90
40638;DHT22;26336;44.696;10.622;2023-08-12T05:48:18;22.60;99.90
40638;DHT22;26336;44.696;10.622;2023-08-12T05:51:22;22.70;99.90
40638;DHT22;26336;44.696;10.622;2023-08-12T05:54:26;22.70;99.90
40638;DHT22;26336;44.696;10.622;2023-08-12T05:57:30;22.80;99.90
40638;DHT22;26336;44.696;10.622;2023-08-12T06:00:34;22.80;99.90
40638;DHT22;26336;44.696;10.622;2023-08-12T06:03:38;22.90;99.90
40638;DHT22;26336;44.696;10.622;2023-08-12T06:06:42;22.90;99.90
40638;DHT22;26336;44.696;10.622;2023-08-12T06:09:47;23.00;99.90
40638;DHT22;26336;44.696;10.622;2023-08-12T06:12:51;23.00;99.90
40638;DHT22;26336;44.696;10.622;2023-08-12T06:15:55;23.00;99.90
40638;DHT22;26336;44.696;10.622;2023-08-12T06:18:59;23.10;99.90
40638;DHT22;26336;44.696;10.622;2023-08-12T06:22:03;23.10;99.90
40638;DHT22;26336;44.696;10.622;2023-08-12T06:25:08;23.10;99.90
40638;DHT22;26336;44.696;10.622;2023-08-12T06:28:12;23.20;99.90
40638;DHT22;26336;44.696;10.622;2023-08-12T06:31:16;23.20;99.90
40638;DHT22;26336;44.696;10.622;2023-08-12T06:34:20;23.20;99.90
40638;DHT22;26336;44.696;10.622;2023-08-12T06:37:24;23.20;99.90
40638;DHT22;26336;44.696;10.622;2023-08-12T06:40:28;23.20;99.90
40638;DHT22;26336;44.696;10.622;2023-08-12T06:43:32;23.30;99.90
40638;DHT22;26336;44.696;10.622;2023-08-12T06:46:36;23.30;99.90
40638;DHT22;26336;44.696;10.622;2023-08-12T06:49:40;23.30;99.90
40638;DHT22;26336;44.696;10.622;2023-08-12T06:52:43;23.30;99.90
40638;DHT22;26336;44.696;10.622;2023-08-12T06:55:47;23.40;99.90
40638;DHT22;26336;44.696;10.622;2023-08-12T06:58:52;23.40;99.90
40638;DHT22;26336;44.696;10.622;2023-08-12T07:01:56;23.40;99.90
40638;DHT22;26336;44.696;10.622;2023-08-12T07:04:59;23.40;99.90
40638;DHT22;26336;44.696;10.622;2023-08-12T07:08:04;23.50;99.90
40638;DHT22;26336;44.696;10.622;2023-08-12T07:11:08;23.50;99.90
40638;DHT22;26336;44.696;10.622;2023-08-12T07:14:12;23.50;99.90
40638;DHT22;26336;44.696;10.622;2023-08-12T07:17:19;23.60;99.90
40638;DHT22;26336;44.696;10.622;2023-08-12T07:20:26;23.60;99.90
40638;DHT22;26336;44.696;10.622;2023-08-12T07:23:30;23.70;99.90
40638;DHT22;26336;44.696;10.622;2023-08-12T07:26:35;23.70;99.90
40638;DHT22;26336;44.696;10.622;2023-08-12T07:29:39;23.70;99.90
40638;DHT22;26336;44.696;10.622;2023-08-12T07:32:43;23.60;99.90
40638;DHT22;26336;44.696;10.622;2023-08-12T07:35:48;23.70;99.90
40638;DHT22;26336;44.696;10.622;2023-08-12T07:38:51;23.70;99.90
40638;DHT22;26336;44.696;10.622;2023-08-12T07:41:56;23.80;99.90
40638;DHT22;26336;44.696;10.622;2023-08-12T07:45:00;23.90;99.90
40638;DHT22;26336;44.696;10.622;2023-08-12T07:48:05;23.90;99.90
40638;DHT22;26336;44.696;10.622;2023-08-12T07:51:11;24.00;99.90
40638;DHT22;26336;44.696;10.622;2023-08-12T07:54:17;24.00;99.90
40638;DHT22;26336;44.696;10.622;2023-08-12T07:57:24;24.10;99.90
40638;DHT22;26336;44.696;10.622;2023-08-12T08:00:28;24.10;99.90
40638;DHT22;26336;44.696;10.622;2023-08-12T08:03:41;24.10;99.90
40638;DHT22;26336;44.696;10.622;2023-08-12T08:06:48;24.20;99.90
40638;DHT22;26336;44.696;10.622;2023-08-12T08:09:53;24.20;99.90
40638;DHT22;26336;44.696;10.622;2023-08-12T08:12:59;24.30;99.90
40638;DHT22;26336;44.696;10.622;2023-08-12T08:16:04;24.30;99.90
40638;DHT22;26336;44.696;10.622;2023-08-12T08:19:09;24.40;99.90
40638;DHT22;26336;44.696;10.622;2023-08-12T08:22:22;24.40;99.90
40638;DHT22;26336;44.696;10.622;2023-08-12T08:25:49;24.50;99.90
40638;DHT22;26336;44.696;10.622;2023-08-12T08:29:03;24.60;99.90
40638;DHT22;26336;44.696;10.622;2023-08-12T08:32:12;24.60;99.90
40638;DHT22;26336;44.696;10.622;2023-08-12T08:35:16;24.70;99.70
40638;DHT22;26336;44.696;10.622;2023-08-12T08:38:31;24.80;99.40
40638;DHT22;26336;44.696;10.622;2023-08-12T08:41:43;24.80;99.10
40638;DHT22;26336;44.696;10.622;2023-08-12T08:45:01;24.90;99.30
40638;DHT22;26336;44.696;10.622;2023-08-12T08:48:12;25.00;98.90
40638;DHT22;26336;44.696;10.622;2023-08-12T08:51:20;25.00;99.20
40638;DHT22;26336;44.696;10.622;2023-08-12T08:54:25;25.10;99.30
40638;DHT22;26336;44.696;10.622;2023-08-12T08:57:32;25.20;99.20
40638;DHT22;26336;44.696;10.622;2023-08-12T09:00:38;25.20;98.80
40638;DHT22;26336;44.696;10.622;2023-08-12T09:03:42;25.30;98.70
40638;DHT22;26336;44.696;10.622;2023-08-12T09:07:12;25.40;98.70
40638;DHT22;26336;44.696;10.622;2023-08-12T09:10:20;25.50;98.50
40638;DHT22;26336;44.696;10.622;2023-08-12T09:13:24;25.60;98.00
40638;DHT22;26336;44.696;10.622;2023-08-12T09:16:28;25.60;98.10
40638;DHT22;26336;44.696;10.622;2023-08-12T09:19:32;25.70;98.00
40638;DHT22;26336;44.696;10.622;2023-08-12T09:22:43;25.90;98.00
40638;DHT22;26336;44.696;10.622;2023-08-12T09:25:47;26.10;97.20
40638;DHT22;26336;44.696;10.622;2023-08-12T09:28:52;26.20;97.10
40638;DHT22;26336;44.696;10.622;2023-08-12T09:32:05;26.30;96.80
40638;DHT22;26336;44.696;10.622;2023-08-12T09:35:19;26.30;96.60
40638;DHT22;26336;44.696;10.622;2023-08-12T09:38:24;26.40;96.10
40638;DHT22;26336;44.696;10.622;2023-08-12T09:41:29;26.50;96.20
40638;DHT22;26336;44.696;10.622;2023-08-12T09:44:37;26.60;95.70
40638;DHT22;26336;44.696;10.622;2023-08-12T09:47:44;26.70;96.00
40638;DHT22;26336;44.696;10.622;2023-08-12T09:50:49;26.80;95.70
40638;DHT22;26336;44.696;10.622;2023-08-12T09:53:54;26.90;95.90
40638;DHT22;26336;44.696;10.622;2023-08-12T09:57:01;26.90;96.20
40638;DHT22;26336;44.696;10.622;2023-08-12T10:00:06;26.90;95.90
40638;DHT22;26336;44.696;10.622;2023-08-12T10:03:18;27.00;95.60
40638;DHT22;26336;44.696;10.622;2023-08-12T10:06:24;27.10;95.10
40638;DHT22;26336;44.696;10.622;2023-08-12T10:09:29;27.10;94.60
40638;DHT22;26336;44.696;10.622;2023-08-12T10:12:34;27.10;94.80
40638;DHT22;26336;44.696;10.622;2023-08-12T10:15:40;27.20;94.90
40638;DHT22;26336;44.696;10.622;2023-08-12T10:18:46;27.30;94.70
40638;DHT22;26336;44.696;10.622;2023-08-12T10:21:55;27.30;94.70
40638;DHT22;26336;44.696;10.622;2023-08-12T10:25:03;27.50;94.50
40638;DHT22;26336;44.696;10.622;2023-08-12T10:28:39;27.50;94.30
40638;DHT22;26336;44.696;10.622;2023-08-12T10:31:46;27.70;93.90
40638;DHT22;26336;44.696;10.622;2023-08-12T10:34:55;27.70;93.80
40638;DHT22;26336;44.696;10.622;2023-08-12T10:38:00;27.70;93.50
40638;DHT22;26336;44.696;10.622;2023-08-12T10:41:19;27.80;93.40
40638;DHT22;26336;44.696;10.622;2023-08-12T10:44:51;27.80;93.20
40638;DHT22;26336;44.696;10.622;2023-08-12T10:51:14;27.90;93.30
40638;DHT22;26336;44.696;10.622;2023-08-12T10:54:28;28.00;93.10
40638;DHT22;26336;44.696;10.622;2023-08-12T10:57:45;28.10;93.20
40638;DHT22;26336;44.696;10.622;2023-08-12T11:01:17;28.20;92.60
40638;DHT22;26336;44.696;10.622;2023-08-12T11:04:38;28.30;91.40
40638;DHT22;26336;44.696;10.622;2023-08-12T11:07:46;28.20;92.00
40638;DHT22;26336;44.696;10.622;2023-08-12T11:11:10;28.20;92.40
40638;DHT22;26336;44.696;10.622;2023-08-12T11:19:34;28.30;92.50
40638;DHT22;26336;44.696;10.622;2023-08-12T11:22:40;28.40;92.90
40638;DHT22;26336;44.696;10.622;2023-08-12T11:25:44;28.50;92.70
40638;DHT22;26336;44.696;10.622;2023-08-12T11:28:53;28.60;92.80
40638;DHT22;26336;44.696;10.622;2023-08-12T11:31:59;28.60;92.40
40638;DHT22;26336;44.696;10.622;2023-08-12T11:35:07;28.70;92.20
40638;DHT22;26336;44.696;10.622;2023-08-12T11:38:15;28.70;92.40
40638;DHT22;26336;44.696;10.622;2023-08-12T11:41:29;28.80;93.00
40638;DHT22;26336;44.696;10.622;2023-08-12T11:44:33;28.80;92.30
40638;DHT22;26336;44.696;10.622;2023-08-12T11:47:40;28.80;92.60
40638;DHT22;26336;44.696;10.622;2023-08-12T11:50:44;28.80;92.10
40638;DHT22;26336;44.696;10.622;2023-08-12T11:53:48;28.90;92.20
40638;DHT22;26336;44.696;10.622;2023-08-12T11:56:55;28.90;92.20
40638;DHT22;26336;44.696;10.622;2023-08-12T12:00:04;28.90;92.60
40638;DHT22;26336;44.696;10.622;2023-08-12T12:03:22;28.90;92.30
40638;DHT22;26336;44.696;10.622;2023-08-12T12:06:36;29.00;92.20
40638;DHT22;26336;44.696;10.622;2023-08-12T12:09:43;29.10;92.70
40638;DHT22;26336;44.696;10.622;2023-08-12T12:12:51;29.10;92.30
40638;DHT22;26336;44.696;10.622;2023-08-12T12:16:00;29.10;92.40
40638;DHT22;26336;44.696;10.622;2023-08-12T12:19:04;29.20;92.20
40638;DHT22;26336;44.696;10.622;2023-08-12T12:26:14;29.30;92.20
40638;DHT22;26336;44.696;10.622;2023-08-12T12:29:21;29.30;91.90
40638;DHT22;26336;44.696;10.622;2023-08-12T12:33:05;29.30;91.80
40638;DHT22;26336;44.696;10.622;2023-08-12T12:36:51;29.20;91.90
40638;DHT22;26336;44.696;10.622;2023-08-12T12:40:19;29.30;92.50
40638;DHT22;26336;44.696;10.622;2023-08-12T12:43:35;29.30;92.00
40638;DHT22;26336;44.696;10.622;2023-08-12T12:47:45;29.20;92.10
40638;DHT22;26336;44.696;10.622;2023-08-12T12:51:08;29.20;92.30
40638;DHT22;26336;44.696;10.622;2023-08-12T12:54:19;29.30;92.20
40638;DHT22;26336;44.696;10.622;2023-08-12T12:57:49;29.30;92.30
40638;DHT22;26336;44.696;10.622;2023-08-12T13:00:56;29.40;92.00
40638;DHT22;26336;44.696;10.622;2023-08-12T13:04:00;29.40;92.00
40638;DHT22;26336;44.696;10.622;2023-08-12T13:07:19;29.50;91.90
40638;DHT22;26336;44.696;10.622;2023-08-12T13:30:45;29.60;91.80
40638;DHT22;26336;44.696;10.622;2023-08-12T13:33:51;29.80;91.80
40638;DHT22;26336;44.696;10.622;2023-08-12T13:36:55;29.90;91.50
40638;DHT22;26336;44.696;10.622;2023-08-12T13:39:59;29.90;91.60
40638;DHT22;26336;44.696;10.622;2023-08-12T13:43:03;29.90;91.60
40638;DHT22;26336;44.696;10.622;2023-08-12T13:46:14;29.80;91.50
40638;DHT22;26336;44.696;10.622;2023-08-12T13:49:25;29.90;91.50
40638;DHT22;26336;44.696;10.622;2023-08-12T13:56:20;29.80;91.20
40638;DHT22;26336;44.696;10.622;2023-08-12T13:59:46;29.80;92.00
40638;DHT22;26336;44.696;10.622;2023-08-12T14:02:58;29.90;91.30
40638;DHT22;26336;44.696;10.622;2023-08-12T14:06:11;29.80;91.20
40638;DHT22;26336;44.696;10.622;2023-08-12T14:09:34;29.90;91.60
40638;DHT22;26336;44.696;10.622;2023-08-12T14:12:56;30.00;91.10
40638;DHT22;26336;44.696;10.622;2023-08-12T14:15:59;30.00;91.20
40638;DHT22;26336;44.696;10.622;2023-08-12T14:19:08;30.00;91.40
40638;DHT22;26336;44.696;10.622;2023-08-12T14:22:22;30.00;91.10
40638;DHT22;26336;44.696;10.622;2023-08-12T14:25:28;30.00;91.10
40638;DHT22;26336;44.696;10.622;2023-08-12T14:28:42;30.10;91.20
40638;DHT22;26336;44.696;10.622;2023-08-12T14:31:46;29.90;91.20
40638;DHT22;26336;44.696;10.622;2023-08-12T14:34:56;29.90;91.40
40638;DHT22;26336;44.696;10.622;2023-08-12T14:38:00;29.90;91.30
40638;DHT22;26336;44.696;10.622;2023-08-12T14:41:18;30.00;91.30
40638;DHT22;26336;44.696;10.622;2023-08-12T14:44:50;30.00;91.00
40638;DHT22;26336;44.696;10.622;2023-08-12T14:48:20;30.00;91.00
40638;DHT22;26336;44.696;10.622;2023-08-12T14:51:27;30.20;91.00
40638;DHT22;26336;44.696;10.622;2023-08-12T14:54:37;30.20;91.00
40638;DHT22;26336;44.696;10.622;2023-08-12T14:57:47;30.10;90.90
40638;DHT22;26336;44.696;10.622;2023-08-12T15:00:51;30.20;90.80
40638;DHT22;26336;44.696;10.622;2023-08-12T15:03:58;30.20;90.60
40638;DHT22;26336;44.696;10.622;2023-08-12T15:08:07;30.10;91.00
40638;DHT22;26336;44.696;10.622;2023-08-12T15:11:25;30.10;90.80
40638;DHT22;26336;44.696;10.622;2023-08-12T15:14:52;30.20;91.00
40638;DHT22;26336;44.696;10.622;2023-08-12T15:18:04;30.20;91.10
40638;DHT22;26336;44.696;10.622;2023-08-12T15:21:08;30.10;90.90
40638;DHT22;26336;44.696;10.622;2023-08-12T15:24:12;30.10;91.00
40638;DHT22;26336;44.696;10.622;2023-08-12T15:27:16;30.10;91.00
40638;DHT22;26336;44.696;10.622;2023-08-12T15:30:23;30.10;90.90
40638;DHT22;26336;44.696;10.622;2023-08-12T15:33:28;30.00;90.80
40638;DHT22;26336;44.696;10.622;2023-08-12T15:36:32;30.10;90.60
40638;DHT22;26336;44.696;10.622;2023-08-12T15:39:39;30.10;90.70
40638;DHT22;26336;44.696;10.622;2023-08-12T15:42:43;30.20;90.60
40638;DHT22;26336;44.696;10.622;2023-08-12T15:45:49;30.10;90.50
40638;DHT22;26336;44.696;10.622;2023-08-12T15:48:59;30.00;90.60
40638;DHT22;26336;44.696;10.622;2023-08-12T15:52:06;30.00;90.80
40638;DHT22;26336;44.696;10.622;2023-08-12T15:55:13;30.10;90.60
40638;DHT22;26336;44.696;10.622;2023-08-12T15:58:18;30.10;90.70
40638;DHT22;26336;44.696;10.622;2023-08-12T16:01:27;30.10;90.90
40638;DHT22;26336;44.696;10.622;2023-08-12T16:04:42;30.00;91.00
40638;DHT22;26336;44.696;10.622;2023-08-12T16:07:46;30.00;90.60
40638;DHT22;26336;44.696;10.622;2023-08-12T16:10:50;30.00;90.70
40638;DHT22;26336;44.696;10.622;2023-08-12T16:13:54;30.00;90.90
40638;DHT22;26336;44.696;10.622;2023-08-12T16:16:58;30.00;90.80
40638;DHT22;26336;44.696;10.622;2023-08-12T16:20:09;30.00;90.70
40638;DHT22;26336;44.696;10.622;2023-08-12T16:23:18;30.00;90.80
40638;DHT22;26336;44.696;10.622;2023-08-12T16:26:22;30.00;91.00
40638;DHT22;26336;44.696;10.622;2023-08-12T16:29:27;30.00;91.00
40638;DHT22;26336;44.696;10.622;2023-08-12T16:32:35;30.00;90.80
40638;DHT22;26336;44.696;10.622;2023-08-12T16:35:39;30.10;90.60
40638;DHT22;26336;44.696;10.622;2023-08-12T16:38:44;30.10;90.60
40638;DHT22;26336;44.696;10.622;2023-08-12T16:42:00;30.10;90.70
40638;DHT22;26336;44.696;10.622;2023-08-12T16:45:08;30.10;90.60
40638;DHT22;26336;44.696;10.622;2023-08-12T16:48:24;30.10;90.90
40638;DHT22;26336;44.696;10.622;2023-08-12T16:51:40;30.10;90.90
40638;DHT22;26336;44.696;10.622;2023-08-12T16:54:50;30.20;90.70
40638;DHT22;26336;44.696;10.622;2023-08-12T16:58:02;30.10;90.60
40638;DHT22;26336;44.696;10.622;2023-08-12T17:01:11;30.10;90.70
40638;DHT22;26336;44.696;10.622;2023-08-12T17:04:17;30.00;90.80
40638;DHT22;26336;44.696;10.622;2023-08-12T17:07:24;29.90;90.90
40638;DHT22;26336;44.696;10.622;2023-08-12T17:10:37;29.90;91.20
40638;DHT22;26336;44.696;10.622;2023-08-12T17:13:47;30.00;90.90
40638;DHT22;26336;44.696;10.622;2023-08-12T17:16:51;29.90;90.90
40638;DHT22;26336;44.696;10.622;2023-08-12T17:19:56;30.00;91.10
40638;DHT22;26336;44.696;10.622;2023-08-12T17:23:06;29.90;91.20
40638;DHT22;26336;44.696;10.622;2023-08-12T17:26:15;29.90;91.10
40638;DHT22;26336;44.696;10.622;2023-08-12T17:29:20;29.80;91.50
40638;DHT22;26336;44.696;10.622;2023-08-12T17:32:24;29.80;91.50
40638;DHT22;26336;44.696;10.622;2023-08-12T17:35:28;29.80;91.50
40638;DHT22;26336;44.696;10.622;2023-08-12T17:38:32;29.70;91.50
40638;DHT22;26336;44.696;10.622;2023-08-12T17:41:36;29.70;91.70
40638;DHT22;26336;44.696;10.622;2023-08-12T17:44:42;29.70;91.50
40638;DHT22;26336;44.696;10.622;2023-08-12T17:48:00;29.60;91.50
40638;DHT22;26336;44.696;10.622;2023-08-12T17:51:06;29.60;91.60
40638;DHT22;26336;44.696;10.622;2023-08-12T17:54:16;29.60;91.50
40638;DHT22;26336;44.696;10.622;2023-08-12T17:57:20;29.50;91.70
40638;DHT22;26336;44.696;10.622;2023-08-12T18:00:27;29.50;91.80
40638;DHT22;26336;44.696;10.622;2023-08-12T18:03:31;29.50;92.00
40638;DHT22;26336;44.696;10.622;2023-08-12T18:06:35;29.40;92.00
40638;DHT22;26336;44.696;10.622;2023-08-12T18:09:42;29.30;92.20
40638;DHT22;26336;44.696;10.622;2023-08-12T18:12:46;29.30;92.20
40638;DHT22;26336;44.696;10.622;2023-08-12T18:15:51;29.20;92.30
40638;DHT22;26336;44.696;10.622;2023-08-12T18:18:55;29.20;92.40
40638;DHT22;26336;44.696;10.622;2023-08-12T18:21:59;29.20;92.50
40638;DHT22;26336;44.696;10.622;2023-08-12T18:25:06;29.10;92.70
40638;DHT22;26336;44.696;10.622;2023-08-12T18:28:13;29.10;92.70
40638;DHT22;26336;44.696;10.622;2023-08-12T18:31:20;29.10;92.70
40638;DHT22;26336;44.696;10.622;2023-08-12T18:34:24;29.00;93.00
40638;DHT22;26336;44.696;10.622;2023-08-12T18:37:28;29.00;93.20
40638;DHT22;26336;44.696;10.622;2023-08-12T18:40:39;28.90;93.30
40638;DHT22;26336;44.696;10.622;2023-08-12T18:43:43;28.90;93.30
40638;DHT22;26336;44.696;10.622;2023-08-12T18:46:48;28.80;93.40
40638;DHT22;26336;44.696;10.622;2023-08-12T18:49:52;28.80;93.40
40638;DHT22;26336;44.696;10.622;2023-08-12T18:52:57;28.70;93.60
40638;DHT22;26336;44.696;10.622;2023-08-12T18:56:00;28.70;93.50
40638;DHT22;26336;44.696;10.622;2023-08-12T18:59:04;28.70;93.50
40638;DHT22;26336;44.696;10.622;2023-08-12T19:02:08;28.60;93.70
40638;DHT22;26336;44.696;10.622;2023-08-12T19:05:14;28.60;93.60
40638;DHT22;26336;44.696;10.622;2023-08-12T19:08:19;28.60;93.50
40638;DHT22;26336;44.696;10.622;2023-08-12T19:11:23;28.60;93.70
40638;DHT22;26336;44.696;10.622;2023-08-12T19:14:32;28.50;93.90
40638;DHT22;26336;44.696;10.622;2023-08-12T19:17:36;28.50;93.90
40638;DHT22;26336;44.696;10.622;2023-08-12T19:20:43;28.50;94.20
40638;DHT22;26336;44.696;10.622;2023-08-12T19:23:47;28.40;94.20
40638;DHT22;26336;44.696;10.622;2023-08-12T19:26:51;28.40;94.20
40638;DHT22;26336;44.696;10.622;2023-08-12T19:29:56;28.40;94.50
40638;DHT22;26336;44.696;10.622;2023-08-12T19:33:00;28.30;94.60
40638;DHT22;26336;44.696;10.622;2023-08-12T19:36:05;28.20;94.70
40638;DHT22;26336;44.696;10.622;2023-08-12T19:39:09;28.20;94.90
40638;DHT22;26336;44.696;10.622;2023-08-12T19:42:14;28.10;95.00
40638;DHT22;26336;44.696;10.622;2023-08-12T19:45:18;28.10;95.10
40638;DHT22;26336;44.696;10.622;2023-08-12T19:48:23;28.00;95.10
40638;DHT22;26336;44.696;10.622;2023-08-12T19:51:27;28.00;95.20
40638;DHT22;26336;44.696;10.622;2023-08-12T19:54:32;28.00;95.10
40638;DHT22;26336;44.696;10.622;2023-08-12T19:57:36;27.90;95.10
40638;DHT22;26336;44.696;10.622;2023-08-12T20:00:43;27.90;95.10
40638;DHT22;26336;44.696;10.622;2023-08-12T20:03:47;27.80;94.70